Home PIREPS Pireps

Flight SAB0001

  • Submitted By: Wim Poppe
  • Departure Airport: Bruxelles National (EBBR)
  • Arrival Airport: Paris - Charles-de-Gaulle (LFPG)
  • Aircraft: A319-111 (OO-SAD)
  • Flight Time: 01.09
  • Date Submitted: 25/08/2015
  • Status: Accepted
Flight Details
Gross Revenue:
(113 load / € 1.00 per unit
€ 113.00
Fuel Cost:
(247 fuel used @ 5.1 / unit)
€ 1,259.70

Additional Log Information:

View Log

Aircraft Used in flight is Carenado C90B King Air Beige Red
22:06 Engine 1 Started
22:06 Engine 2 Started
22:06 Strobe Lights ON at 190 AGL
22:06 Navigation Lights ON at 190 AGL
22:06 Taxi Lights ON at 190 AGL
22:06 Beacon Lights ON at 190 AGL
22:06 Brakes are On
22:06 Brakes are Released
22:06Flaps 1 Selected at 190ft and 7kts
22:12 Taxi Lights OFF at 190 AGL
22:13 You Took off @ 119 Knots and Flaps at Position 1
Departure Weather
EBBR 251950Z 20016KT 9999 FEW033 17/13 Q1013 NOSIGrn
22:13 Landing Gear Up @ 123 Knots and 220 Feet
22:16Flaps 2 Selected at 5420ft and 128kts
22:16Flaps Retracted at 5440ft and 128kts
22:19 Above FL100 you need to switch of the landing lights
23:09Flaps 1 Selected at 2790ft and 150kts
23:10Flaps 2 Selected at 1960ft and 131kts
23:10 Landing Gear Down @ 111 Knots and 1830 Feet
23:13 You Landed @ 78 Knots and with -150 Vertical Speed
Arrival Weather
LFPG 252100Z 19011KT 9999 FEW010 BKN028 18/16 Q1015 NOSIGrn
23:13 Taxi Lights ON at 390 AGL
23:13Flaps Retracted at 390ft and 33kts
23:15 Brakes are On
23:15 Engine 1 Stoped
23:15 Engine 2 Stoped
23:15 Taxi Lights OFF at 390 AGL
23:15 Navigation Lights OFF at 390 AGL
23:15 Strobe Lights OFF at 390 AGL
23:15 Beacon Lights OFF at 390 AGL
23:15 Brussels Bel-Track1.0.0.11

Route Map

Corporate About Us Our Team Vacancies Information Fleet Route Network Rules and Regulations Operations Flight Schedules Event Center Tours Partners IVAO Vatsim Acars dev FSCB

fb Users Online Belgium Martin Witters, Belgium Bennie Peeters, Belgium Jos Viville,
4 Pilot(s) and 124 Guest(s) Online
CMS by phpVMS - Design by Crazycreatives.com - Copyright © 2018 - Brussels Airlines Virtual